Frank T. Stegbauer — WDE5944 — position and weather

sailwx.info

Track history (hours):
 
Tides and Currents Weather Stations Pressure Air Temp Water Temp Dewpoint Dewpoint Depression Visibility Wind Speed Wind Dir Waves Ship Positions

Frank T. Stegbauer

Owner: SOUTHERN TOWING COMPANY LLC., Memphis, TN. More information available from US FCC via Universal Licensing System and Coast Guard Vessel Documentation Center.

Last reported at 2016-Sep-05 13:26 UTC. Time now 2016-Sep-26 07:08 UTC.
Position N 31°58' W 091°11'.
Warning: this ship's position is 20 days out of date.

Length 35 m; draft 8.6 m.

Type: Tug. MMSI: 367373640.

Date/timePositionNaut miles runAvg speedWind from/ knotsBaromVisibWave heightAir tempDewpointWater temp
2016-Sep-05 13:26N 31°58' W 091°11'9 7.1
2016-Sep-05 12:07N 32°06' W 091°06'3 5.0
2016-Sep-05 11:32N 32°07' W 091°03'9 9.1
2016-Sep-05 10:33N 32°15' W 090°58'5 5.5
2016-Sep-05 09:33N 32°21' W 090°57'7 7.3
2016-Sep-05 08:33N 32°26' W 091°03'9 8.7
2016-Sep-05 07:31N 32°35' W 091°07'5 0.3
2016-Sep-04 12:33N 32°40' W 091°08'6 5.6
2016-Sep-04 11:33N 32°34' W 091°07'6 6.3
2016-Sep-04 10:33N 32°28' W 091°06'7 6.5
2016-Sep-04 09:33N 32°25' W 090°60'4 4.0
2016-Sep-04 08:33N 32°21' W 090°58'4 3.6
2016-Sep-04 07:33N 32°19' W 090°54'6 5.9
2016-Sep-04 06:33N 32°15' W 090°59'10 4.9
2016-Sep-04 04:33N 32°07' W 091°07'  
2016-Aug-30 12:33N 32°03' W 091°03'4 3.9
2016-Aug-30 11:33N 32°07' W 091°03'8 7.8
2016-Aug-30 10:34N 32°14' W 090°59'7 6.8
2016-Aug-30 09:34N 32°21' W 090°57'8 8.3
2016-Aug-30 08:34N 32°26' W 091°04'9 9.3
2016-Aug-30 07:34N 32°35' W 091°08'9 6.9
2016-Aug-30 06:17N 32°43' W 091°03'  
Track history (hours):
 
Tides and Currents Weather Stations Pressure Air Temp Water Temp Dewpoint Dewpoint Depression Visibility Wind Speed Wind Dir Waves Ship Positions

Frank T. Stegbauer

Owner: SOUTHERN TOWING COMPANY LLC., Memphis, TN. More information available from US FCC via Universal Licensing System and Coast Guard Vessel Documentation Center.

Last reported at 2016-Sep-05 13:26 UTC. Time now 2016-Sep-26 07:08 UTC.
Position N 31°58' W 091°11'.
Warning: this ship's position is 20 days out of date.

Length 35 m; draft 8.6 m.

Type: Tug. MMSI: 367373640.

Date/timePositionNaut miles runAvg speedWind from/ knotsBaromVisibWave heightAir tempDewpointWater temp
2016-Sep-05 13:26N 31°58' W 091°11'9 7.1
2016-Sep-05 12:07N 32°06' W 091°06'3 5.0
2016-Sep-05 11:32N 32°07' W 091°03'9 9.1
2016-Sep-05 10:33N 32°15' W 090°58'5 5.5
2016-Sep-05 09:33N 32°21' W 090°57'7 7.3
2016-Sep-05 08:33N 32°26' W 091°03'9 8.7
2016-Sep-05 07:31N 32°35' W 091°07'5 0.3
2016-Sep-04 12:33N 32°40' W 091°08'6 5.6
2016-Sep-04 11:33N 32°34' W 091°07'6 6.3
2016-Sep-04 10:33N 32°28' W 091°06'7 6.5
2016-Sep-04 09:33N 32°25' W 090°60'4 4.0
2016-Sep-04 08:33N 32°21' W 090°58'4 3.6
2016-Sep-04 07:33N 32°19' W 090°54'6 5.9
2016-Sep-04 06:33N 32°15' W 090°59'10 4.9
2016-Sep-04 04:33N 32°07' W 091°07'  
2016-Aug-30 12:33N 32°03' W 091°03'4 3.9
2016-Aug-30 11:33N 32°07' W 091°03'8 7.8
2016-Aug-30 10:34N 32°14' W 090°59'7 6.8
2016-Aug-30 09:34N 32°21' W 090°57'8 8.3
2016-Aug-30 08:34N 32°26' W 091°04'9 9.3
2016-Aug-30 07:34N 32°35' W 091°08'9 6.9
2016-Aug-30 06:17N 32°43' W 091°03'  

Dump ship's entire track history